CFG5L EDDF-HECA
Flight info
| Callsign | CFG5L |
|---|---|
| Flight time | N/A |
| Altitude | 37000 |
| Route | CINDY8S/18 CINDY Z74 LAMPU DCT NOMBO Y161 MAH DCT VAVOR DCT RADIZ DCT NEMEK/N0459F390 DCT ELTIB DCT PINDO DCT LUSES DCT ATV DCT KUMBI L612 BLT |
| Aircraft | A339/H-SADE1E2E3GHIJ3J5M1P2RWXY/LB2D1 |
Departure
| Time | 2026-04-18 09:25 |
|---|---|
| Airport | Frankfurt Main Airport (EDDF) |
Arrival
| Time | N/A |
|---|---|
| Airport | Cairo International Airport (HECA) |
| Time | Latitude | Longitude | Altitude | Speed | Heading |
|---|---|---|---|---|---|
| 2026-04-18 08:48 | 50.04734 | 8.56269 | 371 ft | 0 kts | 339° |
| 2026-04-18 09:11 | 50.04733 | 8.56271 | 367 ft | 0 kts | 344° |
| 2026-04-18 09:11 | 50.04719 | 8.56277 | 369 ft | 2 kts | 9° |
| 2026-04-18 09:12 | 50.04702 | 8.56273 | 369 ft | 2 kts | 37° |
| 2026-04-18 09:12 | 50.04689 | 8.56257 | 367 ft | 2 kts | 66° |
| 2026-04-18 09:12 | 50.04689 | 8.56256 | 367 ft | 0 kts | 68° |
| 2026-04-18 09:15 | 50.04689 | 8.56259 | 367 ft | 1 kts | 68° |
| 2026-04-18 09:15 | 50.04688 | 8.56287 | 369 ft | 4 kts | 96° |
| 2026-04-18 09:16 | 50.04652 | 8.56321 | 371 ft | 6 kts | 172° |
| 2026-04-18 09:16 | 50.04629 | 8.56278 | 373 ft | 4 kts | 245° |
| 2026-04-18 09:16 | 50.04626 | 8.56259 | 371 ft | 0 kts | 250° |
| 2026-04-18 09:17 | 50.04626 | 8.56258 | 371 ft | 1 kts | 250° |
| 2026-04-18 09:17 | 50.04618 | 8.56227 | 371 ft | 7 kts | 248° |
| 2026-04-18 09:17 | 50.04593 | 8.56129 | 371 ft | 12 kts | 249° |
| 2026-04-18 09:17 | 50.04563 | 8.56004 | 368 ft | 13 kts | 247° |
| 2026-04-18 09:18 | 50.04488 | 8.55939 | 372 ft | 13 kts | 197° |
| 2026-04-18 09:18 | 50.04397 | 8.55907 | 371 ft | 14 kts | 181° |
| 2026-04-18 09:18 | 50.04301 | 8.55953 | 371 ft | 15 kts | 159° |
| 2026-04-18 09:18 | 50.04227 | 8.55886 | 373 ft | 14 kts | 245° |
| 2026-04-18 09:19 | 50.04191 | 8.55740 | 369 ft | 15 kts | 249° |
| 2026-04-18 09:19 | 50.04154 | 8.55584 | 370 ft | 16 kts | 249° |
| 2026-04-18 09:19 | 50.04115 | 8.55419 | 371 ft | 17 kts | 250° |
| 2026-04-18 09:19 | 50.04073 | 8.55246 | 371 ft | 17 kts | 249° |
| 2026-04-18 09:20 | 50.04030 | 8.55065 | 369 ft | 18 kts | 250° |
| 2026-04-18 09:20 | 50.03986 | 8.54878 | 368 ft | 19 kts | 250° |
| 2026-04-18 09:20 | 50.03938 | 8.54683 | 371 ft | 20 kts | 250° |
| 2026-04-18 09:20 | 50.03891 | 8.54482 | 369 ft | 20 kts | 250° |
| 2026-04-18 09:21 | 50.03825 | 8.54290 | 371 ft | 20 kts | 234° |
| 2026-04-18 09:21 | 50.03770 | 8.54098 | 368 ft | 18 kts | 250° |
| 2026-04-18 09:21 | 50.03725 | 8.53910 | 371 ft | 19 kts | 249° |
| 2026-04-18 09:21 | 50.03678 | 8.53713 | 370 ft | 20 kts | 249° |
| 2026-04-18 09:22 | 50.03628 | 8.53511 | 368 ft | 20 kts | 248° |
| 2026-04-18 09:22 | 50.03577 | 8.53303 | 370 ft | 21 kts | 250° |
| 2026-04-18 09:22 | 50.03527 | 8.53093 | 371 ft | 21 kts | 249° |
| 2026-04-18 09:22 | 50.03475 | 8.52879 | 371 ft | 21 kts | 247° |
| 2026-04-18 09:23 | 50.03437 | 8.52745 | 369 ft | 10 kts | 248° |
| 2026-04-18 09:23 | 50.03414 | 8.52645 | 372 ft | 9 kts | 250° |
| 2026-04-18 09:23 | 50.03381 | 8.52600 | 374 ft | 6 kts | 203° |
| 2026-04-18 09:23 | 50.03332 | 8.52595 | 373 ft | 0 kts | 180° |
| 2026-04-18 09:24 | 50.03308 | 8.52595 | 372 ft | 25 kts | 180° |
| 2026-04-18 09:24 | 50.02819 | 8.52600 | 369 ft | 113 kts | 180° |
| 2026-04-18 09:25 | 50.01783 | 8.52606 | 371 ft | 180 kts | 180° |
| 2026-04-18 09:25 | 50.00470 | 8.52598 | 890 ft | 193 kts | 180° |
| 2026-04-18 09:25 | 49.99122 | 8.52600 | 1804 ft | 194 kts | 180° |
| 2026-04-18 09:25 | 49.97757 | 8.52638 | 2654 ft | 201 kts | 175° |
| 2026-04-18 09:26 | 49.96405 | 8.53453 | 3121 ft | 221 kts | 143° |
| 2026-04-18 09:26 | 49.95413 | 8.55373 | 3649 ft | 234 kts | 120° |
| 2026-04-18 09:26 | 49.94658 | 8.57647 | 3933 ft | 238 kts | 116° |
| 2026-04-18 09:26 | 49.94082 | 8.60083 | 3991 ft | 242 kts | 102° |
| 2026-04-18 09:27 | 49.93954 | 8.62666 | 4012 ft | 242 kts | 90° |
| 2026-04-18 09:27 | 49.93924 | 8.65414 | 4007 ft | 269 kts | 92° |
| 2026-04-18 09:27 | 49.93721 | 8.68376 | 4432 ft | 278 kts | 107° |
| 2026-04-18 09:27 | 49.92815 | 8.70953 | 5339 ft | 270 kts | 133° |
| 2026-04-18 09:28 | 49.91392 | 8.72784 | 6077 ft | 269 kts | 147° |
| 2026-04-18 09:28 | 49.89804 | 8.74345 | 6794 ft | 270 kts | 148° |
| 2026-04-18 09:28 | 49.88349 | 8.76239 | 7432 ft | 276 kts | 133° |
| 2026-04-18 09:28 | 49.87255 | 8.78710 | 8123 ft | 281 kts | 120° |
| 2026-04-18 09:29 | 49.86306 | 8.81386 | 8809 ft | 285 kts | 120° |
| 2026-04-18 09:29 | 49.85343 | 8.84085 | 9532 ft | 288 kts | 120° |
| 2026-04-18 09:29 | 49.84372 | 8.86779 | 10217 ft | 291 kts | 120° |
| 2026-04-18 09:29 | 49.83350 | 8.89601 | 10560 ft | 308 kts | 120° |
| 2026-04-18 09:30 | 49.82263 | 8.92585 | 10739 ft | 328 kts | 120° |
| 2026-04-18 09:30 | 49.81122 | 8.95710 | 11031 ft | 343 kts | 120° |
| 2026-04-18 09:30 | 49.79936 | 8.98959 | 11566 ft | 349 kts | 120° |
| 2026-04-18 09:30 | 49.78730 | 9.02269 | 12145 ft | 354 kts | 120° |
| 2026-04-18 09:31 | 49.77506 | 9.05620 | 12727 ft | 359 kts | 120° |
| 2026-04-18 09:31 | 49.76362 | 9.09103 | 13291 ft | 365 kts | 113° |
| 2026-04-18 09:31 | 49.75578 | 9.12823 | 13870 ft | 370 kts | 103° |
| 2026-04-18 09:31 | 49.74896 | 9.16685 | 14332 ft | 374 kts | 111° |
| 2026-04-18 09:32 | 49.73723 | 9.20280 | 14917 ft | 375 kts | 124° |
| 2026-04-18 09:32 | 49.72090 | 9.23450 | 15447 ft | 378 kts | 133° |
| 2026-04-18 09:32 | 49.70322 | 9.26493 | 15976 ft | 382 kts | 133° |
| 2026-04-18 09:32 | 49.68575 | 9.29550 | 16513 ft | 385 kts | 133° |
| 2026-04-18 09:33 | 49.66796 | 9.32689 | 17038 ft | 389 kts | 132° |
| 2026-04-18 09:33 | 49.65025 | 9.35820 | 17577 ft | 392 kts | 132° |
| 2026-04-18 09:33 | 49.63189 | 9.39024 | 18065 ft | 396 kts | 135° |
| 2026-04-18 09:33 | 49.61139 | 9.41895 | 18584 ft | 398 kts | 144° |
| 2026-04-18 09:34 | 49.58844 | 9.44271 | 19084 ft | 397 kts | 152° |
| 2026-04-18 09:34 | 49.56468 | 9.46387 | 19543 ft | 400 kts | 152° |
| 2026-04-18 09:34 | 49.54055 | 9.48565 | 20042 ft | 403 kts | 152° |
| 2026-04-18 09:34 | 49.51621 | 9.50779 | 20530 ft | 406 kts | 151° |
| 2026-04-18 09:35 | 49.49178 | 9.53009 | 21057 ft | 408 kts | 151° |
| 2026-04-18 09:35 | 49.46756 | 9.55218 | 21526 ft | 411 kts | 151° |
| 2026-04-18 09:35 | 49.44285 | 9.57467 | 22030 ft | 414 kts | 151° |
| 2026-04-18 09:35 | 49.41792 | 9.59733 | 22530 ft | 417 kts | 151° |
| 2026-04-18 09:36 | 49.39278 | 9.62016 | 23043 ft | 419 kts | 151° |
| 2026-04-18 09:36 | 49.36753 | 9.64304 | 23551 ft | 422 kts | 151° |
| 2026-04-18 09:36 | 49.34279 | 9.66759 | 23974 ft | 427 kts | 145° |
| 2026-04-18 09:36 | 49.32017 | 9.69727 | 24399 ft | 431 kts | 137° |
| 2026-04-18 09:37 | 49.29900 | 9.73022 | 24820 ft | 433 kts | 136° |
| 2026-04-18 09:37 | 49.27798 | 9.76272 | 25249 ft | 436 kts | 136° |
| 2026-04-18 09:37 | 49.25649 | 9.79566 | 25670 ft | 438 kts | 136° |
| 2026-04-18 09:37 | 49.23461 | 9.82900 | 26087 ft | 441 kts | 136° |
| 2026-04-18 09:38 | 49.21300 | 9.86184 | 26505 ft | 444 kts | 137° |
| 2026-04-18 09:38 | 49.19100 | 9.89520 | 26890 ft | 447 kts | 137° |
| 2026-04-18 09:38 | 49.16885 | 9.92876 | 27320 ft | 449 kts | 137° |
| 2026-04-18 09:38 | 49.14667 | 9.96234 | 27711 ft | 451 kts | 137° |
| 2026-04-18 09:39 | 49.12424 | 9.99624 | 28093 ft | 454 kts | 137° |
| 2026-04-18 09:39 | 49.10180 | 10.03014 | 28480 ft | 456 kts | 137° |
| 2026-04-18 09:39 | 49.07906 | 10.06443 | 28863 ft | 458 kts | 137° |
| 2026-04-18 09:39 | 49.05657 | 10.09827 | 29232 ft | 461 kts | 137° |
| 2026-04-18 09:40 | 49.03325 | 10.13204 | 29596 ft | 463 kts | 139° |
| 2026-04-18 09:40 | 49.00954 | 10.16536 | 29970 ft | 465 kts | 139° |
| 2026-04-18 09:40 | 48.98562 | 10.19881 | 30325 ft | 467 kts | 139° |
| 2026-04-18 09:40 | 48.96168 | 10.23238 | 30656 ft | 469 kts | 139° |
| 2026-04-18 09:41 | 48.93766 | 10.26616 | 30975 ft | 472 kts | 139° |
| 2026-04-18 09:41 | 48.91346 | 10.30027 | 31298 ft | 474 kts | 139° |
| 2026-04-18 09:41 | 48.88956 | 10.33398 | 31637 ft | 476 kts | 139° |
| 2026-04-18 09:41 | 48.86515 | 10.36836 | 31942 ft | 478 kts | 139° |
| 2026-04-18 09:42 | 48.84065 | 10.40282 | 32269 ft | 481 kts | 139° |
| 2026-04-18 09:42 | 48.81666 | 10.43858 | 32566 ft | 484 kts | 135° |
| 2026-04-18 09:42 | 48.79352 | 10.47594 | 32818 ft | 486 kts | 135° |
| 2026-04-18 09:42 | 48.77034 | 10.51325 | 33074 ft | 488 kts | 135° |
| 2026-04-18 09:43 | 48.74690 | 10.55081 | 33296 ft | 489 kts | 135° |
| 2026-04-18 09:43 | 48.72353 | 10.58818 | 33485 ft | 491 kts | 135° |
| 2026-04-18 09:43 | 48.69994 | 10.62578 | 33673 ft | 492 kts | 136° |
| 2026-04-18 09:43 | 48.67635 | 10.66332 | 33870 ft | 492 kts | 136° |
| 2026-04-18 09:44 | 48.65276 | 10.70081 | 34115 ft | 492 kts | 136° |
| 2026-04-18 09:44 | 48.62915 | 10.73830 | 34337 ft | 491 kts | 136° |
| 2026-04-18 09:44 | 48.60591 | 10.77514 | 34533 ft | 491 kts | 136° |
| 2026-04-18 09:44 | 48.58233 | 10.81247 | 34743 ft | 490 kts | 135° |
| 2026-04-18 09:45 | 48.55887 | 10.84986 | 34921 ft | 490 kts | 135° |
| 2026-04-18 09:45 | 48.53546 | 10.88738 | 35128 ft | 490 kts | 135° |
| 2026-04-18 09:45 | 48.51210 | 10.92479 | 35320 ft | 489 kts | 135° |
| 2026-04-18 09:45 | 48.48877 | 10.96208 | 35516 ft | 489 kts | 135° |
| 2026-04-18 09:46 | 48.46527 | 10.99913 | 35703 ft | 489 kts | 136° |
| 2026-04-18 09:46 | 48.44166 | 11.03588 | 35894 ft | 489 kts | 136° |
| 2026-04-18 09:46 | 48.41795 | 11.07268 | 36081 ft | 488 kts | 136° |
| 2026-04-18 09:46 | 48.39428 | 11.10939 | 36261 ft | 488 kts | 136° |
| 2026-04-18 09:47 | 48.37088 | 11.14568 | 36454 ft | 488 kts | 136° |
| 2026-04-18 09:47 | 48.34725 | 11.18231 | 36631 ft | 488 kts | 136° |
| 2026-04-18 09:47 | 48.32361 | 11.21893 | 36830 ft | 488 kts | 136° |
| 2026-04-18 09:47 | 48.29985 | 11.25569 | 36994 ft | 488 kts | 135° |
| 2026-04-18 09:48 | 48.27673 | 11.29230 | 37148 ft | 488 kts | 132° |
| 2026-04-18 09:48 | 48.25582 | 11.33267 | 37214 ft | 490 kts | 125° |
| 2026-04-18 09:48 | 48.22128 | 11.42076 | 37214 ft | 489 kts | 120° |
| 2026-04-18 09:49 | 48.18728 | 11.50924 | 37217 ft | 489 kts | 121° |
| 2026-04-18 09:49 | 48.15321 | 11.59703 | 37209 ft | 489 kts | 121° |
| 2026-04-18 09:50 | 48.11888 | 11.68515 | 37205 ft | 489 kts | 121° |
| 2026-04-18 09:50 | 48.08471 | 11.77259 | 37207 ft | 489 kts | 121° |
| 2026-04-18 09:51 | 48.05019 | 11.86064 | 37204 ft | 489 kts | 121° |
| 2026-04-18 09:51 | 48.01589 | 11.94786 | 37201 ft | 489 kts | 121° |
| 2026-04-18 09:52 | 47.98116 | 12.03586 | 37204 ft | 489 kts | 121° |
| 2026-04-18 09:52 | 47.94517 | 12.12144 | 37200 ft | 489 kts | 127° |
| 2026-04-18 09:53 | 47.89998 | 12.19713 | 37206 ft | 488 kts | 138° |
| 2026-04-18 09:53 | 47.84836 | 12.26209 | 37201 ft | 487 kts | 141° |
| 2026-04-18 09:54 | 47.79620 | 12.32713 | 37205 ft | 488 kts | 141° |
| 2026-04-18 09:54 | 47.74449 | 12.39166 | 37209 ft | 488 kts | 141° |
| 2026-04-18 09:55 | 47.69233 | 12.45656 | 37202 ft | 488 kts | 141° |
| 2026-04-18 09:55 | 47.64016 | 12.52125 | 37182 ft | 489 kts | 141° |
| 2026-04-18 09:56 | 47.59827 | 12.57767 | 37179 ft | 489 kts | 136° |
| 2026-04-18 09:56 | 47.54119 | 12.65881 | 37197 ft | 489 kts | 136° |
| 2026-04-18 09:57 | 47.49189 | 12.72856 | 37172 ft | 489 kts | 136° |
| 2026-04-18 09:57 | 47.44266 | 12.79791 | 37182 ft | 488 kts | 136° |
| 2026-04-18 09:58 | 47.39366 | 12.86673 | 37207 ft | 488 kts | 136° |
| 2026-04-18 09:58 | 47.34420 | 12.93597 | 37187 ft | 489 kts | 136° |
| 2026-04-18 09:59 | 47.29472 | 13.00508 | 37183 ft | 490 kts | 136° |
| 2026-04-18 10:00 | 47.22074 | 13.10803 | 37212 ft | 489 kts | 136° |
| 2026-04-18 10:00 | 47.17115 | 13.17681 | 37209 ft | 490 kts | 136° |
| 2026-04-18 10:01 | 47.12947 | 13.23449 | 37203 ft | 490 kts | 136° |
| 2026-04-18 10:01 | 47.08010 | 13.30267 | 37183 ft | 489 kts | 136° |
| 2026-04-18 10:02 | 47.03049 | 13.37101 | 37205 ft | 489 kts | 136° |
| 2026-04-18 10:02 | 46.98069 | 13.43935 | 37218 ft | 489 kts | 136° |
| 2026-04-18 10:03 | 46.93083 | 13.50760 | 37199 ft | 490 kts | 136° |
| 2026-04-18 10:03 | 46.88130 | 13.57528 | 37171 ft | 490 kts | 136° |
| 2026-04-18 10:04 | 46.83130 | 13.64340 | 37200 ft | 490 kts | 136° |
| 2026-04-18 10:04 | 46.78130 | 13.71130 | 37207 ft | 492 kts | 136° |
| 2026-04-18 10:05 | 46.73145 | 13.77884 | 37169 ft | 490 kts | 136° |
| 2026-04-18 10:05 | 46.68130 | 13.84662 | 37202 ft | 490 kts | 136° |
| 2026-04-18 10:06 | 46.63157 | 13.91363 | 37204 ft | 491 kts | 136° |
| 2026-04-18 10:06 | 46.58135 | 13.98112 | 37170 ft | 491 kts | 136° |
| 2026-04-18 10:07 | 46.53091 | 14.04875 | 37185 ft | 492 kts | 136° |
| 2026-04-18 10:07 | 46.48075 | 14.11581 | 37215 ft | 493 kts | 136° |
| 2026-04-18 10:08 | 46.43019 | 14.18322 | 37187 ft | 493 kts | 136° |
| 2026-04-18 10:08 | 46.37961 | 14.25051 | 37178 ft | 494 kts | 136° |
| 2026-04-18 10:09 | 46.32917 | 14.31742 | 37186 ft | 494 kts | 136° |
| 2026-04-18 10:09 | 46.27831 | 14.38470 | 37196 ft | 495 kts | 136° |
| 2026-04-18 10:10 | 46.22749 | 14.45174 | 37194 ft | 495 kts | 136° |
| 2026-04-18 10:10 | 46.17654 | 14.51879 | 37192 ft | 495 kts | 135° |
| 2026-04-18 10:11 | 46.12544 | 14.58588 | 37189 ft | 496 kts | 135° |
| 2026-04-18 10:11 | 46.07469 | 14.65232 | 37188 ft | 496 kts | 135° |
| 2026-04-18 10:12 | 46.02349 | 14.71918 | 37187 ft | 497 kts | 135° |
| 2026-04-18 10:12 | 45.97209 | 14.78611 | 37190 ft | 497 kts | 135° |
| 2026-04-18 10:13 | 45.92079 | 14.85276 | 37190 ft | 497 kts | 135° |
| 2026-04-18 10:13 | 45.86970 | 14.91895 | 37191 ft | 497 kts | 135° |
| 2026-04-18 10:14 | 45.81823 | 14.98547 | 37192 ft | 497 kts | 135° |
| 2026-04-18 10:14 | 45.76672 | 15.05188 | 37188 ft | 498 kts | 135° |
| 2026-04-18 10:15 | 45.71519 | 15.11810 | 37190 ft | 498 kts | 135° |
| 2026-04-18 10:15 | 45.66356 | 15.18435 | 37190 ft | 498 kts | 135° |
| 2026-04-18 10:16 | 45.61237 | 15.24986 | 37185 ft | 498 kts | 135° |
| 2026-04-18 10:16 | 45.56059 | 15.31591 | 37186 ft | 499 kts | 136° |
| 2026-04-18 10:17 | 45.50789 | 15.38049 | 37184 ft | 500 kts | 137° |
| 2026-04-18 10:17 | 45.45501 | 15.44488 | 37181 ft | 500 kts | 136° |
| 2026-04-18 10:18 | 45.40218 | 15.50940 | 37185 ft | 500 kts | 136° |
| 2026-04-18 10:18 | 45.34923 | 15.57396 | 37182 ft | 500 kts | 136° |
| 2026-04-18 10:19 | 45.29656 | 15.63804 | 37177 ft | 501 kts | 136° |
| 2026-04-18 10:19 | 45.24346 | 15.70246 | 37180 ft | 501 kts | 136° |
| 2026-04-18 10:20 | 45.19037 | 15.76670 | 37177 ft | 501 kts | 136° |
| 2026-04-18 10:20 | 45.13752 | 15.83049 | 37175 ft | 501 kts | 136° |
| 2026-04-18 10:21 | 45.08434 | 15.89452 | 37168 ft | 502 kts | 136° |
| 2026-04-18 10:21 | 45.03106 | 15.95850 | 37178 ft | 502 kts | 137° |
| 2026-04-18 10:22 | 44.97783 | 16.02227 | 37171 ft | 502 kts | 137° |
| 2026-04-18 10:22 | 44.92455 | 16.08594 | 37171 ft | 502 kts | 137° |
| 2026-04-18 10:23 | 44.87151 | 16.14914 | 37169 ft | 502 kts | 137° |
| 2026-04-18 10:23 | 44.81804 | 16.21272 | 37165 ft | 502 kts | 137° |
| 2026-04-18 10:24 | 44.76467 | 16.27602 | 37165 ft | 502 kts | 137° |
| 2026-04-18 10:24 | 44.71113 | 16.33936 | 37158 ft | 502 kts | 137° |
| 2026-04-18 10:25 | 44.65801 | 16.40204 | 37152 ft | 502 kts | 137° |
| 2026-04-18 10:25 | 44.60448 | 16.46505 | 37155 ft | 502 kts | 137° |
| 2026-04-18 10:26 | 44.55092 | 16.52792 | 37149 ft | 502 kts | 137° |
| 2026-04-18 10:26 | 44.49724 | 16.59080 | 37152 ft | 502 kts | 137° |
| 2026-04-18 10:27 | 44.44379 | 16.65325 | 37147 ft | 502 kts | 137° |
| 2026-04-18 10:27 | 44.39003 | 16.71590 | 37145 ft | 502 kts | 137° |
| 2026-04-18 10:28 | 44.33668 | 16.77797 | 37132 ft | 502 kts | 137° |
| 2026-04-18 10:28 | 44.28298 | 16.84035 | 37141 ft | 502 kts | 137° |
| 2026-04-18 10:29 | 44.22940 | 16.90304 | 37139 ft | 502 kts | 137° |
| 2026-04-18 10:29 | 44.17609 | 16.96550 | 37133 ft | 502 kts | 137° |
| 2026-04-18 10:30 | 44.12267 | 17.02798 | 37129 ft | 502 kts | 137° |
| 2026-04-18 10:30 | 44.06909 | 17.09044 | 37127 ft | 501 kts | 137° |
| 2026-04-18 10:31 | 44.01549 | 17.15271 | 37125 ft | 501 kts | 137° |
| 2026-04-18 10:31 | 43.96216 | 17.21447 | 37122 ft | 501 kts | 137° |
| 2026-04-18 10:32 | 43.90852 | 17.27645 | 37116 ft | 501 kts | 137° |
| 2026-04-18 10:32 | 43.85475 | 17.33845 | 37108 ft | 501 kts | 138° |
| 2026-04-18 10:33 | 43.80109 | 17.40015 | 37103 ft | 501 kts | 138° |
| 2026-04-18 10:33 | 43.74772 | 17.46138 | 37101 ft | 501 kts | 138° |
| 2026-04-18 10:34 | 43.69394 | 17.52292 | 37100 ft | 501 kts | 138° |
| 2026-04-18 10:34 | 43.64019 | 17.58429 | 37093 ft | 501 kts | 138° |
| 2026-04-18 10:35 | 43.58638 | 17.64558 | 37082 ft | 501 kts | 138° |
| 2026-04-18 10:35 | 43.53271 | 17.70657 | 37063 ft | 499 kts | 138° |
| 2026-04-18 10:36 | 43.47908 | 17.76737 | 37047 ft | 499 kts | 139° |
| 2026-04-18 10:36 | 43.42557 | 17.82788 | 37038 ft | 499 kts | 139° |
| 2026-04-18 10:37 | 43.37189 | 17.88844 | 37030 ft | 498 kts | 139° |
| 2026-04-18 10:37 | 43.31861 | 17.94842 | 37037 ft | 498 kts | 139° |
| 2026-04-18 10:38 | 43.26497 | 18.00867 | 37038 ft | 498 kts | 139° |
| 2026-04-18 10:38 | 43.21134 | 18.06875 | 37043 ft | 497 kts | 139° |
| 2026-04-18 10:39 | 43.15771 | 18.12867 | 37047 ft | 496 kts | 139° |
| 2026-04-18 10:39 | 43.10425 | 18.18829 | 37051 ft | 495 kts | 139° |
| 2026-04-18 10:40 | 43.05076 | 18.24780 | 37050 ft | 494 kts | 139° |
| 2026-04-18 10:40 | 42.99767 | 18.30672 | 37045 ft | 494 kts | 140° |
| 2026-04-18 10:41 | 42.94427 | 18.36582 | 37038 ft | 493 kts | 140° |
| 2026-04-18 10:41 | 42.89084 | 18.42487 | 37032 ft | 493 kts | 140° |
| 2026-04-18 10:42 | 42.83756 | 18.48361 | 37025 ft | 492 kts | 140° |
| 2026-04-18 10:42 | 42.78418 | 18.54232 | 37020 ft | 492 kts | 140° |
| 2026-04-18 10:43 | 42.73125 | 18.60039 | 37023 ft | 491 kts | 140° |
| 2026-04-18 10:43 | 42.67797 | 18.65873 | 37011 ft | 491 kts | 140° |
| 2026-04-18 10:44 | 42.62481 | 18.71680 | 37005 ft | 491 kts | 140° |
| 2026-04-18 10:44 | 42.57147 | 18.77494 | 37000 ft | 490 kts | 141° |
| 2026-04-18 10:45 | 42.51821 | 18.83284 | 37000 ft | 490 kts | 141° |
| 2026-04-18 10:45 | 42.46530 | 18.89023 | 37003 ft | 489 kts | 141° |
| 2026-04-18 10:46 | 42.41201 | 18.94790 | 37003 ft | 489 kts | 141° |
| 2026-04-18 10:46 | 42.35903 | 19.00514 | 36995 ft | 489 kts | 141° |
| 2026-04-18 10:47 | 42.31481 | 19.05281 | 36995 ft | 488 kts | 141° |
| 2026-04-18 10:47 | 42.26165 | 19.10999 | 37002 ft | 488 kts | 141° |
| 2026-04-18 10:48 | 42.19994 | 19.17620 | 37001 ft | 487 kts | 141° |
| 2026-04-18 10:48 | 42.14677 | 19.23310 | 36995 ft | 487 kts | 141° |
| 2026-04-18 10:49 | 42.10265 | 19.28026 | 36990 ft | 486 kts | 141° |
| 2026-04-18 10:49 | 42.04956 | 19.33686 | 36982 ft | 486 kts | 141° |
| 2026-04-18 10:50 | 41.99656 | 19.39325 | 36973 ft | 485 kts | 141° |
| 2026-04-18 10:50 | 41.94365 | 19.44940 | 36969 ft | 484 kts | 141° |
| 2026-04-18 10:51 | 41.89070 | 19.50549 | 36953 ft | 484 kts | 141° |
| 2026-04-18 10:51 | 41.83776 | 19.56146 | 36958 ft | 484 kts | 141° |
| 2026-04-18 10:52 | 41.78496 | 19.61713 | 36954 ft | 486 kts | 141° |
| 2026-04-18 10:52 | 41.73171 | 19.67320 | 36952 ft | 485 kts | 141° |
| 2026-04-18 10:53 | 41.67871 | 19.72884 | 36950 ft | 485 kts | 141° |
| 2026-04-18 10:53 | 41.62566 | 19.78445 | 36950 ft | 483 kts | 141° |
| 2026-04-18 10:54 | 41.57294 | 19.83955 | 36944 ft | 482 kts | 141° |